createdAt,value
2017-12-01T00:01:50.925Z,7.10
2017-12-01T00:04:19.283Z,7.07
2017-12-01T00:06:48.131Z,7.20
2017-12-01T00:09:16.459Z,7.20
2017-12-01T00:11:44.773Z,7.22
2017-12-01T00:14:13.880Z,7.28
2017-12-01T00:16:43.021Z,7.27
2017-12-01T00:19:11.340Z,7.07
2017-12-01T00:21:39.706Z,7.25
2017-12-01T00:24:08.081Z,7.18
2017-12-01T00:26:36.365Z,7.35
2017-12-01T00:29:05.069Z,7.34
2017-12-01T00:31:34.144Z,7.41
2017-12-01T00:34:02.481Z,7.23
2017-12-01T00:36:30.823Z,7.11
2017-12-01T00:38:59.914Z,7.03
2017-12-01T00:41:28.271Z,7.03
2017-12-01T00:43:56.617Z,7.13
2017-12-01T00:46:24.952Z,7.26
2017-12-01T00:48:54.033Z,7.25
2017-12-01T00:51:22.584Z,7.25
2017-12-01T00:53:50.906Z,7.09
2017-12-01T00:56:20.003Z,6.86
2017-12-01T00:58:49.168Z,6.93
2017-12-01T01:01:17.531Z,7.00
2017-12-01T01:03:45.864Z,7.10
2017-12-01T01:06:15.001Z,7.09
2017-12-01T01:08:43.347Z,7.09
2017-12-01T01:11:11.725Z,7.11
2017-12-01T01:13:40.445Z,7.03
2017-12-01T01:16:08.780Z,7.02
2017-12-01T01:18:37.870Z,7.07
2017-12-01T01:21:06.996Z,6.91
2017-12-01T01:23:35.304Z,7.15
2017-12-01T01:26:03.627Z,7.17
2017-12-01T01:28:32.014Z,7.33
2017-12-01T01:31:00.387Z,7.33
2017-12-01T01:33:28.721Z,7.41
2017-12-01T01:35:57.420Z,7.41
2017-12-01T01:38:25.735Z,7.45
2017-12-01T01:40:54.067Z,7.33
2017-12-01T01:43:22.757Z,7.40
2017-12-01T01:45:51.140Z,7.45
2017-12-01T01:48:19.489Z,7.30
2017-12-01T01:50:47.816Z,7.27
2017-12-01T01:53:16.161Z,7.43
2017-12-01T01:55:44.566Z,7.26
2017-12-01T01:58:13.105Z,7.45
2017-12-01T02:00:41.452Z,7.52
2017-12-01T02:03:10.541Z,7.35
2017-12-01T02:05:38.891Z,7.19
2017-12-01T02:08:07.233Z,7.16
2017-12-01T02:10:35.595Z,7.27
2017-12-01T02:13:04.726Z,7.28
2017-12-01T02:15:33.028Z,7.36
2017-12-01T02:18:01.386Z,7.40
2017-12-01T02:20:29.964Z,7.57
2017-12-01T02:22:58.268Z,7.65
2017-12-01T02:25:26.618Z,7.62
2017-12-01T02:27:54.952Z,7.53
2017-12-01T02:30:23.300Z,7.44
2017-12-01T02:32:51.659Z,7.21
2017-12-01T02:35:20.025Z,7.20
2017-12-01T02:37:48.362Z,7.07
2017-12-01T02:40:16.814Z,7.04
2017-12-01T02:42:45.980Z,6.75
2017-12-01T02:45:14.760Z,6.62
2017-12-01T02:47:43.081Z,6.93
2017-12-01T02:50:11.422Z,7.01
2017-12-01T02:52:39.793Z,6.91
2017-12-01T02:55:08.192Z,6.95
2017-12-01T02:57:36.519Z,6.95
2017-12-01T03:00:04.834Z,6.89
2017-12-01T03:02:33.145Z,6.87
2017-12-01T03:05:01.624Z,6.98
2017-12-01T03:07:30.043Z,7.05
2017-12-01T03:09:58.333Z,6.98
2017-12-01T03:12:27.456Z,6.99
2017-12-01T03:14:56.552Z,6.96
2017-12-01T03:17:24.884Z,6.88
2017-12-01T03:19:53.217Z,6.82
2017-12-01T03:22:21.536Z,6.90
2017-12-01T03:24:49.856Z,7.00
2017-12-01T03:27:18.416Z,7.01
2017-12-01T03:29:46.925Z,7.11
2017-12-01T03:32:15.255Z,7.23
2017-12-01T03:34:43.624Z,7.19
2017-12-01T03:37:12.094Z,7.19
2017-12-01T03:39:40.292Z,6.91
2017-12-01T03:42:08.634Z,7.05
2017-12-01T03:44:36.979Z,7.08
2017-12-01T03:47:05.290Z,7.16
2017-12-01T03:49:33.819Z,7.27
2017-12-01T03:52:02.196Z,7.25
2017-12-01T03:54:30.552Z,7.33
2017-12-01T03:56:58.907Z,7.33
2017-12-01T03:59:27.219Z,7.33
2017-12-01T04:01:55.534Z,7.30
2017-12-01T04:04:23.886Z,7.25
2017-12-01T04:06:52.236Z,7.21
2017-12-01T04:09:20.563Z,7.18
2017-12-01T04:11:49.006Z,7.14
2017-12-01T04:14:17.351Z,7.11
2017-12-01T04:16:45.672Z,7.26
2017-12-01T04:19:14.036Z,7.27
2017-12-01T04:21:42.360Z,7.15
2017-12-01T04:24:10.676Z,7.11
2017-12-01T04:26:39.043Z,7.28
2017-12-01T04:29:07.345Z,7.38
2017-12-01T04:31:35.695Z,7.13
2017-12-01T04:34:04.527Z,7.05
2017-12-01T04:36:32.852Z,6.99
2017-12-01T04:39:01.171Z,6.96
2017-12-01T04:41:29.519Z,7.11
2017-12-01T04:43:57.877Z,7.08
2017-12-01T04:46:26.972Z,7.13
2017-12-01T04:48:56.085Z,7.15
2017-12-01T04:51:25.200Z,7.24
2017-12-01T04:53:53.553Z,7.01
2017-12-01T04:56:21.997Z,6.86
2017-12-01T04:58:50.344Z,6.70
2017-12-01T05:01:18.701Z,7.04
2017-12-01T05:03:47.067Z,7.09
2017-12-01T05:06:15.374Z,7.01
2017-12-01T05:08:43.845Z,6.93
2017-12-01T05:11:12.194Z,7.01
2017-12-01T05:13:40.544Z,6.96
2017-12-01T05:16:08.870Z,6.99
2017-12-01T05:18:37.268Z,6.94
2017-12-01T05:21:05.575Z,6.81
2017-12-01T05:23:33.882Z,6.87
2017-12-01T05:26:02.286Z,6.87
2017-12-01T05:28:30.642Z,6.62
2017-12-01T05:30:58.944Z,6.68
2017-12-01T05:33:27.317Z,6.63
2017-12-01T05:35:55.649Z,6.45
2017-12-01T05:38:23.995Z,6.57
2017-12-01T05:40:52.473Z,6.50
2017-12-01T05:43:20.777Z,6.40
2017-12-01T05:45:49.109Z,6.59
2017-12-01T05:48:17.475Z,6.68
2017-12-01T05:50:46.566Z,6.74
2017-12-01T05:53:15.673Z,6.59
2017-12-01T05:55:44.790Z,6.56
2017-12-01T05:58:13.110Z,6.60
2017-12-01T06:00:41.406Z,6.79
2017-12-01T06:03:09.821Z,6.65
2017-12-01T06:05:38.130Z,6.67
2017-12-01T06:08:06.484Z,6.76
2017-12-01T06:10:34.847Z,6.79
2017-12-01T06:13:03.949Z,6.67
2017-12-01T06:15:32.296Z,6.64
2017-12-01T06:18:00.681Z,6.73
2017-12-01T06:20:29.027Z,6.79
2017-12-01T06:22:57.324Z,6.89
2017-12-01T06:25:25.839Z,6.92
2017-12-01T06:27:54.154Z,6.83
2017-12-01T06:30:22.539Z,6.90
2017-12-01T06:32:50.872Z,6.89
2017-12-01T06:35:19.234Z,6.91
2017-12-01T06:37:47.580Z,6.92
2017-12-01T06:40:15.949Z,6.96
2017-12-01T06:42:44.329Z,6.88
2017-12-01T06:45:12.823Z,6.90
2017-12-01T06:47:41.330Z,6.88
2017-12-01T06:50:09.689Z,6.96
2017-12-01T06:52:38.050Z,7.07
2017-12-01T06:55:06.391Z,6.98
2017-12-01T06:57:34.703Z,6.90
2017-12-01T07:00:03.047Z,6.95
2017-12-01T07:02:31.379Z,6.82
2017-12-01T07:04:59.702Z,6.86
2017-12-01T07:07:28.023Z,6.87
2017-12-01T07:09:56.846Z,6.77
2017-12-01T07:12:25.192Z,6.85
2017-12-01T07:14:53.600Z,6.87
2017-12-01T07:17:21.985Z,6.87
2017-12-01T07:19:50.303Z,7.05
2017-12-01T07:22:18.677Z,6.74
2017-12-01T07:24:47.029Z,6.59
2017-12-01T07:27:15.341Z,6.84
2017-12-01T07:29:43.666Z,7.00
2017-12-01T07:32:12.276Z,6.84
2017-12-01T07:34:41.346Z,6.74
2017-12-01T07:37:09.725Z,6.61
2017-12-01T07:39:38.104Z,6.78
2017-12-01T07:42:06.434Z,6.74
2017-12-01T07:47:43.151Z,6.78
2017-12-01T07:50:11.580Z,6.83
2017-12-01T07:52:40.660Z,6.91
2017-12-01T07:55:09.008Z,6.93
2017-12-01T07:57:37.392Z,6.84
2017-12-01T08:00:06.491Z,6.94
2017-12-01T08:02:34.823Z,6.82
2017-12-01T08:05:03.166Z,6.92
2017-12-01T08:07:32.885Z,6.94
2017-12-01T08:10:01.230Z,7.04
2017-12-01T08:12:30.144Z,6.96
2017-12-01T08:14:58.500Z,7.13
2017-12-01T08:17:31.033Z,7.12
2017-12-01T08:20:00.127Z,7.01
2017-12-01T08:22:59.245Z,7.03
2017-12-01T08:25:32.111Z,6.81
2017-12-01T08:28:01.728Z,7.11
2017-12-01T08:30:30.072Z,7.23
2017-12-01T08:32:58.472Z,7.36
2017-12-01T08:35:26.783Z,7.28
2017-12-01T08:37:55.175Z,7.43
2017-12-01T08:40:23.587Z,7.45
2017-12-01T08:42:52.072Z,7.38
2017-12-01T08:45:20.489Z,7.43
2017-12-01T08:47:48.812Z,7.46
2017-12-01T08:50:17.632Z,7.67
2017-12-01T08:52:45.991Z,7.69
2017-12-01T08:55:14.339Z,7.75
2017-12-01T08:57:42.676Z,7.91
2017-12-01T09:00:11.778Z,7.89
2017-12-01T09:02:40.120Z,8.10
2017-12-01T09:05:08.472Z,8.15
2017-12-01T09:07:36.903Z,8.30
2017-12-01T09:10:06.097Z,8.30
2017-12-01T09:12:34.817Z,8.48
2017-12-01T09:15:03.136Z,8.61
2017-12-01T09:17:31.449Z,8.73
2017-12-01T09:20:00.548Z,8.65
2017-12-01T09:22:29.621Z,8.52
2017-12-01T09:24:57.925Z,9.08
2017-12-01T09:27:27.053Z,9.42
2017-12-01T09:29:55.415Z,10.14
2017-12-01T09:32:23.759Z,11.87
2017-12-01T09:34:52.306Z,13.86
2017-12-01T09:37:20.712Z,15.81
2017-12-01T09:39:49.006Z,15.93
2017-12-01T09:42:18.137Z,15.61
2017-12-01T09:44:46.510Z,14.50
2017-12-01T09:47:14.828Z,13.46
2017-12-01T09:49:43.221Z,12.46
2017-12-01T09:52:11.564Z,11.51
2017-12-01T09:54:39.894Z,10.87
2017-12-01T09:57:08.316Z,10.64
2017-12-01T09:59:36.632Z,10.60
2017-12-01T10:02:04.981Z,10.09
2017-12-01T10:04:33.301Z,9.80
2017-12-01T10:07:01.636Z,9.69
2017-12-01T10:09:29.945Z,9.33
2017-12-01T10:11:58.291Z,9.28
2017-12-01T10:14:26.592Z,9.19
2017-12-01T10:16:54.942Z,9.02
2017-12-01T10:19:23.461Z,8.97
2017-12-01T10:21:51.798Z,9.03
2017-12-01T10:24:20.132Z,9.04
2017-12-01T10:26:48.494Z,9.12
2017-12-01T10:29:16.834Z,9.54
2017-12-01T10:31:45.139Z,9.54
2017-12-01T10:34:13.505Z,9.79
2017-12-01T10:36:41.825Z,9.70
2017-12-01T10:39:10.335Z,9.58
2017-12-01T10:41:38.929Z,9.63
2017-12-01T10:44:07.248Z,9.62
2017-12-01T10:46:35.556Z,9.82
2017-12-01T10:49:04.129Z,9.76
2017-12-01T10:51:32.436Z,9.72
2017-12-01T10:54:00.756Z,9.97
2017-12-01T10:56:29.138Z,10.25
2017-12-01T10:58:57.509Z,10.31
2017-12-01T11:01:25.890Z,10.33
2017-12-01T11:03:54.532Z,10.55
2017-12-01T11:06:22.880Z,10.12
2017-12-01T11:08:51.205Z,9.58
2017-12-01T11:11:19.570Z,9.68
2017-12-01T11:13:48.678Z,9.57
2017-12-01T11:16:17.740Z,9.49
2017-12-01T11:18:46.115Z,9.42
2017-12-01T11:21:14.455Z,9.23
2017-12-01T11:23:42.810Z,9.32
2017-12-01T11:26:11.221Z,9.42
2017-12-01T11:28:39.557Z,9.29
2017-12-01T11:31:08.646Z,9.23
2017-12-01T11:33:37.810Z,9.13
2017-12-01T11:36:06.138Z,8.96
2017-12-01T11:38:34.453Z,8.70
2017-12-01T11:41:03.601Z,8.73
2017-12-01T11:43:32.688Z,8.92
2017-12-01T11:46:01.797Z,8.84
2017-12-01T11:48:30.992Z,8.90
2017-12-01T11:50:59.506Z,8.93
2017-12-01T11:53:27.930Z,8.88
2017-12-01T11:55:56.298Z,8.79
2017-12-01T11:58:25.418Z,8.94
2017-12-01T12:00:55.307Z,8.98
2017-12-01T12:03:24.561Z,9.09
2017-12-01T12:05:52.911Z,9.12
2017-12-01T12:08:22.020Z,9.01
2017-12-01T12:10:50.698Z,9.13
2017-12-01T12:13:19.831Z,9.09
2017-12-01T12:15:48.161Z,9.11
2017-12-01T12:18:16.519Z,9.14
2017-12-01T12:20:44.868Z,9.04
2017-12-01T12:23:13.479Z,8.92
2017-12-01T12:25:41.791Z,8.58
2017-12-01T12:28:10.910Z,8.58
2017-12-01T12:30:39.258Z,8.61
2017-12-01T12:33:08.177Z,8.56
2017-12-01T12:35:36.563Z,8.56
2017-12-01T12:38:04.879Z,8.47
2017-12-01T12:40:33.265Z,8.39
2017-12-01T12:43:01.614Z,8.17
2017-12-01T12:45:29.973Z,8.23
2017-12-01T12:47:58.321Z,8.31
2017-12-01T12:50:27.416Z,8.35
2017-12-01T12:52:55.779Z,8.48
2017-12-01T12:55:24.303Z,8.41
2017-12-01T12:57:53.397Z,8.55
2017-12-01T13:00:21.715Z,8.47
2017-12-01T13:02:50.100Z,8.44
2017-12-01T13:05:18.460Z,8.28
2017-12-01T13:07:46.803Z,8.38
2017-12-01T13:10:15.957Z,8.38
2017-12-01T13:12:44.281Z,8.35
2017-12-01T13:15:12.608Z,8.33
2017-12-01T13:17:41.784Z,8.28
2017-12-01T13:20:10.136Z,8.26
2017-12-01T13:22:39.434Z,8.36
2017-12-01T13:25:07.821Z,8.14
2017-12-01T13:27:36.323Z,8.16
2017-12-01T13:30:04.683Z,8.33
2017-12-01T13:32:33.783Z,8.38
2017-12-01T13:35:02.177Z,8.29
2017-12-01T13:37:30.522Z,8.34
2017-12-01T13:39:59.009Z,8.40
2017-12-01T13:42:27.353Z,8.18
2017-12-01T13:44:55.764Z,8.28
2017-12-01T13:47:24.162Z,8.63
2017-12-01T13:49:52.536Z,8.52
2017-12-01T13:52:20.896Z,8.47
2017-12-01T13:54:49.279Z,8.50
2017-12-01T13:57:17.657Z,8.43
2017-12-01T13:59:46.766Z,8.45
2017-12-01T14:02:16.009Z,8.30
2017-12-01T14:04:45.146Z,8.21
2017-12-01T14:07:14.284Z,8.39
2017-12-01T14:09:42.668Z,8.37
2017-12-01T14:12:11.030Z,8.30
2017-12-01T14:14:39.429Z,8.34
2017-12-01T14:17:07.871Z,8.41
2017-12-01T14:19:36.198Z,8.53
2017-12-01T14:22:04.531Z,8.35
2017-12-01T14:24:33.870Z,8.36
2017-12-01T14:27:02.254Z,8.28
2017-12-01T14:29:30.572Z,8.35
2017-12-01T14:31:58.950Z,8.33
2017-12-01T14:34:27.274Z,8.28
2017-12-01T14:36:55.599Z,8.30
2017-12-01T14:39:23.972Z,8.39
2017-12-01T14:41:52.311Z,8.26
2017-12-01T14:44:20.628Z,8.26
2017-12-01T14:46:49.213Z,8.21
2017-12-01T14:49:17.557Z,8.25
2017-12-01T14:51:45.899Z,8.14
2017-12-01T14:54:15.025Z,7.92
2017-12-01T14:56:43.413Z,8.08
2017-12-01T14:59:11.791Z,8.22
2017-12-01T15:01:40.172Z,8.09
2017-12-01T15:04:08.509Z,8.00
2017-12-01T15:06:37.687Z,8.15
2017-12-01T15:09:06.225Z,8.01
2017-12-01T15:11:34.608Z,8.10
2017-12-01T15:14:02.952Z,8.14
2017-12-01T15:16:31.356Z,8.02
2017-12-01T15:18:59.700Z,7.95
2017-12-01T15:21:28.008Z,8.07
2017-12-01T15:23:56.432Z,7.97
2017-12-01T15:26:24.729Z,8.14
2017-12-01T15:28:53.045Z,8.22
2017-12-01T15:31:21.747Z,8.09
2017-12-01T15:33:50.112Z,7.96
2017-12-01T15:36:18.428Z,8.11
2017-12-01T15:38:46.771Z,8.00
2017-12-01T15:41:15.117Z,8.05
2017-12-01T15:43:44.242Z,8.09
2017-12-01T15:46:13.405Z,8.03
2017-12-01T15:48:41.756Z,8.06
2017-12-01T15:51:10.089Z,8.06
2017-12-01T15:53:38.812Z,8.05
2017-12-01T15:56:07.156Z,8.12
2017-12-01T15:58:36.263Z,8.14
2017-12-01T16:01:04.793Z,8.10
2017-12-01T16:03:33.173Z,8.10
2017-12-01T16:06:01.496Z,8.08
2017-12-01T16:08:29.866Z,8.08
2017-12-01T16:10:58.967Z,7.91
2017-12-01T16:13:28.068Z,7.98
2017-12-01T16:15:56.813Z,7.92
2017-12-01T16:18:25.167Z,7.91
2017-12-01T16:20:53.512Z,7.92
2017-12-01T16:23:22.628Z,7.81
2017-12-01T16:25:50.943Z,7.84
2017-12-01T16:28:19.349Z,7.73
2017-12-01T16:30:48.454Z,7.76
2017-12-01T16:33:17.590Z,7.84
2017-12-01T16:35:45.898Z,7.93
2017-12-01T16:38:14.632Z,8.04
2017-12-01T16:40:42.984Z,7.95
2017-12-01T16:43:12.087Z,7.94
2017-12-01T16:45:41.232Z,8.09
2017-12-01T16:48:09.583Z,8.18
2017-12-01T16:50:37.947Z,8.28
2017-12-01T16:53:07.056Z,8.21
2017-12-01T16:55:35.349Z,8.34
2017-12-01T16:58:03.655Z,8.20
2017-12-01T17:00:32.076Z,8.31
2017-12-01T17:03:01.209Z,8.30
2017-12-01T17:05:29.546Z,8.28
2017-12-01T17:07:58.691Z,8.26
2017-12-01T17:10:27.103Z,8.19
2017-12-01T17:12:55.444Z,8.23
2017-12-01T17:15:23.843Z,8.19
2017-12-01T17:17:52.197Z,8.15
2017-12-01T17:20:20.613Z,8.20
2017-12-01T17:22:49.355Z,8.12
2017-12-01T17:25:17.707Z,8.19
2017-12-01T17:27:46.796Z,8.10
2017-12-01T17:30:15.137Z,8.21
2017-12-01T17:32:43.503Z,8.25
2017-12-01T17:35:12.661Z,8.26
2017-12-01T17:37:41.867Z,8.15
2017-12-01T17:40:10.971Z,8.20
2017-12-01T17:42:39.342Z,8.26
2017-12-01T17:45:08.521Z,8.26
2017-12-01T17:47:36.837Z,8.22
2017-12-01T17:50:05.238Z,8.09
2017-12-01T17:52:33.662Z,8.08
2017-12-01T17:55:02.778Z,8.09
2017-12-01T17:57:31.876Z,8.17
2017-12-01T18:00:00.224Z,8.10
2017-12-01T18:02:28.602Z,7.90
2017-12-01T18:04:57.734Z,7.86
2017-12-01T18:07:26.534Z,7.87
2017-12-01T18:09:54.868Z,7.95
2017-12-01T18:12:23.211Z,7.77
2017-12-01T18:14:51.625Z,7.78
2017-12-01T18:17:19.950Z,7.89
2017-12-01T18:19:48.296Z,7.76
2017-12-01T18:22:17.414Z,7.71
2017-12-01T18:24:45.738Z,7.53
2017-12-01T18:27:14.070Z,7.51
2017-12-01T18:29:42.578Z,7.52
2017-12-01T18:32:10.931Z,7.55
2017-12-01T18:34:39.269Z,7.52
2017-12-01T18:37:07.889Z,7.45
2017-12-01T18:39:36.297Z,7.50
2017-12-01T18:42:04.697Z,7.46
2017-12-01T18:44:33.112Z,7.39
2017-12-01T18:47:01.436Z,7.26
2017-12-01T18:49:29.914Z,7.37
2017-12-01T18:51:58.384Z,7.29
2017-12-01T18:54:26.795Z,7.26
2017-12-01T18:56:55.119Z,7.25
2017-12-01T18:59:24.244Z,7.08
2017-12-01T19:01:52.593Z,7.13
2017-12-01T19:04:21.734Z,7.21
2017-12-01T19:06:50.099Z,7.16
2017-12-01T19:09:18.456Z,7.13
2017-12-01T19:11:47.570Z,7.00
2017-12-01T19:14:16.333Z,6.98
2017-12-01T19:16:45.428Z,6.73
2017-12-01T19:19:13.868Z,6.60
2017-12-01T19:21:42.254Z,6.29
2017-12-01T19:24:10.582Z,6.09
2017-12-01T19:26:39.683Z,6.15
2017-12-01T19:29:08.781Z,6.28
2017-12-01T19:31:37.111Z,6.31
2017-12-01T19:34:05.476Z,6.43
2017-12-01T19:36:33.913Z,6.41
2017-12-01T19:39:02.231Z,6.27
2017-12-01T19:41:30.607Z,6.28
2017-12-01T19:43:59.047Z,6.25
2017-12-01T19:48:54.655Z,5.77
2017-12-01T19:51:23.003Z,5.84
2017-12-01T19:53:51.341Z,5.95
2017-12-01T19:56:19.748Z,5.94
2017-12-01T19:58:48.422Z,5.95
2017-12-01T20:01:16.789Z,5.80
2017-12-01T20:03:45.155Z,5.92
2017-12-01T20:06:14.293Z,5.79
2017-12-01T20:08:42.604Z,5.86
2017-12-01T20:11:10.923Z,5.83
2017-12-01T20:13:39.293Z,5.61
2017-12-01T20:16:23.269Z,5.75
2017-12-01T20:18:51.700Z,5.71
2017-12-01T20:21:20.787Z,5.68
2017-12-01T20:23:49.120Z,5.75
2017-12-01T20:26:17.509Z,5.81
2017-12-01T20:28:45.854Z,5.71
2017-12-01T20:31:14.183Z,5.75
2017-12-01T20:33:42.558Z,5.79
2017-12-01T20:36:10.908Z,5.75
2017-12-01T20:38:39.238Z,5.82
2017-12-01T20:41:07.769Z,5.69
2017-12-01T20:43:36.075Z,5.66
2017-12-01T20:46:04.369Z,5.49
2017-12-01T20:48:32.731Z,5.59
2017-12-01T20:51:01.148Z,5.53
2017-12-01T20:53:30.217Z,5.46
2017-12-01T20:55:58.554Z,5.35
2017-12-01T20:58:26.881Z,5.28
2017-12-01T21:00:55.239Z,5.12
2017-12-01T21:03:23.823Z,5.05
2017-12-01T21:05:52.508Z,4.96
2017-12-01T21:08:20.876Z,4.92
2017-12-01T21:10:49.232Z,4.95
2017-12-01T21:13:17.552Z,5.08
2017-12-01T21:15:45.907Z,5.12
2017-12-01T21:18:14.314Z,5.17
2017-12-01T21:20:42.606Z,5.26
2017-12-01T21:23:10.925Z,5.25
2017-12-01T21:25:39.344Z,5.23
2017-12-01T21:28:07.648Z,5.32
2017-12-01T21:30:35.991Z,5.23
2017-12-01T21:33:04.401Z,5.23
2017-12-01T21:35:32.705Z,5.15
2017-12-01T21:38:01.058Z,4.94
2017-12-01T21:40:29.408Z,4.94
2017-12-01T21:42:57.748Z,4.86
2017-12-01T21:45:26.855Z,4.83
2017-12-01T21:47:55.287Z,4.68
2017-12-01T21:50:23.616Z,4.70
2017-12-01T21:52:51.972Z,4.58
2017-12-01T21:55:21.163Z,4.42
2017-12-01T21:57:49.476Z,4.53
2017-12-01T22:00:17.837Z,4.48
2017-12-01T22:02:46.214Z,4.39
2017-12-01T22:05:14.545Z,4.22
2017-12-01T22:07:42.899Z,4.22
2017-12-01T22:10:11.523Z,4.24
2017-12-01T22:12:39.817Z,4.39
2017-12-01T22:15:08.941Z,4.43
2017-12-01T22:17:37.340Z,4.55
2017-12-01T22:20:05.650Z,4.71
2017-12-01T22:22:33.962Z,4.47
2017-12-01T22:25:03.113Z,4.44
2017-12-01T22:27:31.458Z,4.46
2017-12-01T22:29:59.810Z,4.62
2017-12-01T22:32:29.025Z,4.80
2017-12-01T22:34:57.345Z,4.84
2017-12-01T22:37:25.701Z,4.97
2017-12-01T22:39:54.024Z,4.78
2017-12-01T22:42:22.342Z,4.61
2017-12-01T22:44:50.641Z,4.42
2017-12-01T22:47:18.992Z,4.47
2017-12-01T22:49:47.358Z,4.58
2017-12-01T22:54:49.198Z,4.63
2017-12-01T22:57:17.487Z,4.67
2017-12-01T22:59:45.834Z,4.79
2017-12-01T23:02:14.209Z,4.76
2017-12-01T23:04:42.517Z,4.74
2017-12-01T23:07:10.871Z,4.71
2017-12-01T23:09:39.220Z,4.74
2017-12-01T23:12:07.558Z,4.70
2017-12-01T23:14:35.868Z,4.62
2017-12-01T23:17:04.451Z,4.60
2017-12-01T23:19:33.562Z,4.71
2017-12-01T23:22:01.896Z,4.45
2017-12-01T23:24:30.240Z,4.50
2017-12-01T23:26:58.588Z,4.73
2017-12-01T23:29:27.681Z,4.62
2017-12-01T23:31:56.801Z,4.73
2017-12-01T23:36:58.772Z,4.71
2017-12-01T23:39:27.194Z,4.93
2017-12-01T23:41:55.504Z,4.73
2017-12-01T23:44:23.864Z,4.46
2017-12-01T23:46:52.162Z,4.65
2017-12-01T23:49:21.263Z,4.66
2017-12-01T23:51:50.417Z,4.71
2017-12-01T23:54:19.591Z,4.67
2017-12-01T23:56:47.969Z,4.74
2017-12-01T23:59:16.360Z,4.80
